PHKO

Ellison Onizuka Kona International at Keahole Airport

Kailua/Kona, Hawaii, USA
PHKO 171123Z 1712/1812 08007KT P6SM FEW020 BKN060 FM172000 22010KT P6SM SCT025 BKN060 FM180500 14005KT P6SM SCT020 BKN060
Issued Valid From Valid To
Aug-17 @ 11:23 UTC
(4 hours ago)
Aug-17 @ 12:00 UTC
(3 hours ago)
Aug-18 @ 12:00 UTC
(in 21 hours)
Aug-17 @ 12:00 to Aug-17 @ 20:00
PHKO 171123Z 1712/1812 08007KT P6SM FEW020 BKN060
Wind Visibility Clouds
80° at 7 knots Greater than 6 miles
  • Few at 2,000' AGL
  • Broken at 6,000' AGL
From Aug-17 @ 20:00 to Aug-18 @ 05:00
FM172000 22010KT P6SM SCT025 BKN060
Wind Visibility Clouds
220° at 10 knots Greater than 6 miles
  • Scattered at 2,500' AGL
  • Broken at 6,000' AGL
From Aug-18 @ 05:00 to Aug-18 @ 12:00
FM180500 14005KT P6SM SCT020 BKN060
Wind Visibility Clouds
140° at 5 knots Greater than 6 miles
  • Scattered at 2,000' AGL
  • Broken at 6,000' AGL
PHKO 171123Z 1712/1812 08007KT P6SM FEW020 BKN060 FM172000 22010KT P6SM SCT025 BKN060 FM180500 14005KT P6SM SCT020 BKN060
Issued Aug-17 @ 11:23 UTC
(4 hours ago)
Valid From Aug-17 @ 12:00 UTC
(3 hours ago)
Valid To Aug-18 @ 12:00 UTC
(in 21 hours)
Aug-17 @ 12:00 - Aug-17 @ 20:00
Wind Visibility
80° at 7 knots Greater than 6 miles
Clouds
  • Few at 2,000' AGL
  • Broken at 6,000' AGL
From Aug-17 @ 20:00 - Aug-18 @ 05:00
Wind Visibility
220° at 10 knots Greater than 6 miles
Clouds
  • Scattered at 2,500' AGL
  • Broken at 6,000' AGL
From Aug-18 @ 05:00 - Aug-18 @ 12:00
Wind Visibility
140° at 5 knots Greater than 6 miles
Clouds
  • Scattered at 2,000' AGL
  • Broken at 6,000' AGL